sensor_id;sensor_type;location;lat;lon;timestamp;temperature;humidity
24144;DHT22;12307;50.828;6.080;2023-06-04T00:02:05;22.20;55.40
24144;DHT22;12307;50.828;6.080;2023-06-04T00:04:31;22.20;55.40
24144;DHT22;12307;50.828;6.080;2023-06-04T00:06:57;22.20;55.50
24144;DHT22;12307;50.828;6.080;2023-06-04T00:09:22;22.20;55.50
24144;DHT22;12307;50.828;6.080;2023-06-04T00:11:48;22.10;55.50
24144;DHT22;12307;50.828;6.080;2023-06-04T00:14:14;22.10;55.50
24144;DHT22;12307;50.828;6.080;2023-06-04T00:16:42;22.10;55.50
24144;DHT22;12307;50.828;6.080;2023-06-04T00:19:08;22.10;55.60
24144;DHT22;12307;50.828;6.080;2023-06-04T00:21:34;22.10;55.70
24144;DHT22;12307;50.828;6.080;2023-06-04T00:24:00;22.10;55.60
24144;DHT22;12307;50.828;6.080;2023-06-04T00:26:26;22.10;55.70
24144;DHT22;12307;50.828;6.080;2023-06-04T00:28:53;22.10;55.70
24144;DHT22;12307;50.828;6.080;2023-06-04T00:31:19;22.00;55.70
24144;DHT22;12307;50.828;6.080;2023-06-04T00:33:48;22.00;55.70
24144;DHT22;12307;50.828;6.080;2023-06-04T00:36:14;22.00;55.70
24144;DHT22;12307;50.828;6.080;2023-06-04T00:38:39;22.00;55.70
24144;DHT22;12307;50.828;6.080;2023-06-04T00:41:05;22.00;55.70
24144;DHT22;12307;50.828;6.080;2023-06-04T00:43:31;22.00;55.70
24144;DHT22;12307;50.828;6.080;2023-06-04T00:45:58;21.90;55.70
24144;DHT22;12307;50.828;6.080;2023-06-04T00:48:25;21.90;55.80
24144;DHT22;12307;50.828;6.080;2023-06-04T00:50:54;21.90;55.80
24144;DHT22;12307;50.828;6.080;2023-06-04T00:53:20;21.90;55.80
24144;DHT22;12307;50.828;6.080;2023-06-04T00:55:46;21.90;55.90
24144;DHT22;12307;50.828;6.080;2023-06-04T00:58:12;21.90;55.90
24144;DHT22;12307;50.828;6.080;2023-06-04T01:00:38;21.90;55.90
24144;DHT22;12307;50.828;6.080;2023-06-04T01:03:08;21.90;55.90
24144;DHT22;12307;50.828;6.080;2023-06-04T01:05:38;21.90;56.00
24144;DHT22;12307;50.828;6.080;2023-06-04T01:08:09;21.80;55.90
24144;DHT22;12307;50.828;6.080;2023-06-04T01:10:35;21.80;55.90
24144;DHT22;12307;50.828;6.080;2023-06-04T01:13:01;21.80;56.00
24144;DHT22;12307;50.828;6.080;2023-06-04T01:15:27;21.80;56.00
24144;DHT22;12307;50.828;6.080;2023-06-04T01:17:58;21.80;56.10
24144;DHT22;12307;50.828;6.080;2023-06-04T01:20:34;21.80;56.10
24144;DHT22;12307;50.828;6.080;2023-06-04T01:23:19;21.80;56.70
24144;DHT22;12307;50.828;6.080;2023-06-04T01:25:49;21.80;56.20
24144;DHT22;12307;50.828;6.080;2023-06-04T01:28:17;21.70;56.10
24144;DHT22;12307;50.828;6.080;2023-06-04T01:30:46;21.70;56.20
24144;DHT22;12307;50.828;6.080;2023-06-04T01:33:14;21.70;56.20
24144;DHT22;12307;50.828;6.080;2023-06-04T01:35:40;21.70;56.20
24144;DHT22;12307;50.828;6.080;2023-06-04T01:38:06;21.70;56.20
24144;DHT22;12307;50.828;6.080;2023-06-04T01:40:34;21.70;56.20
24144;DHT22;12307;50.828;6.080;2023-06-04T01:43:00;21.70;56.30
24144;DHT22;12307;50.828;6.080;2023-06-04T01:45:27;21.70;56.30
24144;DHT22;12307;50.828;6.080;2023-06-04T01:47:53;21.70;56.30
24144;DHT22;12307;50.828;6.080;2023-06-04T01:50:19;21.60;56.30
24144;DHT22;12307;50.828;6.080;2023-06-04T01:52:45;21.60;56.30
24144;DHT22;12307;50.828;6.080;2023-06-04T01:55:12;21.60;56.30
24144;DHT22;12307;50.828;6.080;2023-06-04T01:57:40;21.60;56.40
24144;DHT22;12307;50.828;6.080;2023-06-04T02:00:08;21.60;56.40
24144;DHT22;12307;50.828;6.080;2023-06-04T02:02:36;21.60;56.40
24144;DHT22;12307;50.828;6.080;2023-06-04T02:05:02;21.60;56.40
24144;DHT22;12307;50.828;6.080;2023-06-04T02:07:28;21.60;56.40
24144;DHT22;12307;50.828;6.080;2023-06-04T02:09:53;21.50;56.40
24144;DHT22;12307;50.828;6.080;2023-06-04T02:12:19;21.50;56.40
24144;DHT22;12307;50.828;6.080;2023-06-04T02:14:46;21.50;56.50
24144;DHT22;12307;50.828;6.080;2023-06-04T02:17:12;21.50;56.50
24144;DHT22;12307;50.828;6.080;2023-06-04T02:19:38;21.50;56.50
24144;DHT22;12307;50.828;6.080;2023-06-04T02:22:05;21.50;56.60
24144;DHT22;12307;50.828;6.080;2023-06-04T02:24:31;21.50;56.60
24144;DHT22;12307;50.828;6.080;2023-06-04T02:26:56;21.50;56.60
24144;DHT22;12307;50.828;6.080;2023-06-04T02:29:22;21.50;56.60
24144;DHT22;12307;50.828;6.080;2023-06-04T02:31:49;21.50;56.60
24144;DHT22;12307;50.828;6.080;2023-06-04T02:34:15;21.50;56.70
24144;DHT22;12307;50.828;6.080;2023-06-04T02:36:40;21.40;56.70
24144;DHT22;12307;50.828;6.080;2023-06-04T02:39:16;21.40;56.70
24144;DHT22;12307;50.828;6.080;2023-06-04T02:41:41;21.40;56.70
24144;DHT22;12307;50.828;6.080;2023-06-04T02:44:07;21.40;56.70
24144;DHT22;12307;50.828;6.080;2023-06-04T02:46:33;21.40;56.70
24144;DHT22;12307;50.828;6.080;2023-06-04T02:49:00;21.40;56.70
24144;DHT22;12307;50.828;6.080;2023-06-04T02:51:25;21.40;56.70
24144;DHT22;12307;50.828;6.080;2023-06-04T02:53:51;21.40;56.70
24144;DHT22;12307;50.828;6.080;2023-06-04T02:56:17;21.40;56.80
24144;DHT22;12307;50.828;6.080;2023-06-04T02:58:49;21.40;56.80
24144;DHT22;12307;50.828;6.080;2023-06-04T03:01:18;21.40;56.80
24144;DHT22;12307;50.828;6.080;2023-06-04T03:03:45;21.30;56.80
24144;DHT22;12307;50.828;6.080;2023-06-04T03:06:12;21.30;56.80
24144;DHT22;12307;50.828;6.080;2023-06-04T03:08:39;21.30;56.90
24144;DHT22;12307;50.828;6.080;2023-06-04T03:11:05;21.30;56.80
24144;DHT22;12307;50.828;6.080;2023-06-04T03:13:31;21.30;56.90
24144;DHT22;12307;50.828;6.080;2023-06-04T03:15:57;21.30;56.90
24144;DHT22;12307;50.828;6.080;2023-06-04T03:18:26;21.30;56.90
24144;DHT22;12307;50.828;6.080;2023-06-04T03:20:52;21.30;56.90
24144;DHT22;12307;50.828;6.080;2023-06-04T03:23:20;21.30;56.90
24144;DHT22;12307;50.828;6.080;2023-06-04T03:25:46;21.30;57.00
24144;DHT22;12307;50.828;6.080;2023-06-04T03:28:11;21.20;56.90
24144;DHT22;12307;50.828;6.080;2023-06-04T03:30:37;21.20;57.00
24144;DHT22;12307;50.828;6.080;2023-06-04T03:33:03;21.20;57.00
24144;DHT22;12307;50.828;6.080;2023-06-04T03:35:29;21.20;57.00
24144;DHT22;12307;50.828;6.080;2023-06-04T03:37:54;21.20;57.00
24144;DHT22;12307;50.828;6.080;2023-06-04T03:40:21;21.20;57.10
24144;DHT22;12307;50.828;6.080;2023-06-04T03:42:47;21.20;57.10
24144;DHT22;12307;50.828;6.080;2023-06-04T03:45:13;21.20;57.10
24144;DHT22;12307;50.828;6.080;2023-06-04T03:47:39;21.20;57.10
24144;DHT22;12307;50.828;6.080;2023-06-04T03:50:06;21.20;57.10
24144;DHT22;12307;50.828;6.080;2023-06-04T03:52:32;21.20;57.10
24144;DHT22;12307;50.828;6.080;2023-06-04T03:54:58;21.20;57.10
24144;DHT22;12307;50.828;6.080;2023-06-04T03:57:25;21.10;57.10
24144;DHT22;12307;50.828;6.080;2023-06-04T03:59:51;21.10;57.10
24144;DHT22;12307;50.828;6.080;2023-06-04T04:02:17;21.20;57.10
24144;DHT22;12307;50.828;6.080;2023-06-04T04:04:43;21.10;57.10
24144;DHT22;12307;50.828;6.080;2023-06-04T04:07:09;21.10;57.10
24144;DHT22;12307;50.828;6.080;2023-06-04T04:09:36;21.10;57.10
24144;DHT22;12307;50.828;6.080;2023-06-04T04:12:02;21.10;57.10
24144;DHT22;12307;50.828;6.080;2023-06-04T04:14:29;21.10;57.20
24144;DHT22;12307;50.828;6.080;2023-06-04T04:16:55;21.10;57.20
24144;DHT22;12307;50.828;6.080;2023-06-04T04:19:20;21.10;57.20
24144;DHT22;12307;50.828;6.080;2023-06-04T04:21:46;21.10;57.20
24144;DHT22;12307;50.828;6.080;2023-06-04T04:24:22;21.10;57.20
24144;DHT22;12307;50.828;6.080;2023-06-04T04:26:48;21.10;57.30
24144;DHT22;12307;50.828;6.080;2023-06-04T04:29:14;21.10;57.30
24144;DHT22;12307;50.828;6.080;2023-06-04T04:31:41;21.10;57.20
24144;DHT22;12307;50.828;6.080;2023-06-04T04:34:07;21.10;57.30
24144;DHT22;12307;50.828;6.080;2023-06-04T04:36:34;21.10;57.30
24144;DHT22;12307;50.828;6.080;2023-06-04T04:39:01;21.10;57.30
24144;DHT22;12307;50.828;6.080;2023-06-04T04:41:27;21.00;57.30
24144;DHT22;12307;50.828;6.080;2023-06-04T04:43:53;21.00;57.30
24144;DHT22;12307;50.828;6.080;2023-06-04T04:46:19;21.00;57.30
24144;DHT22;12307;50.828;6.080;2023-06-04T04:48:46;21.00;57.20
24144;DHT22;12307;50.828;6.080;2023-06-04T04:51:12;21.00;57.30
24144;DHT22;12307;50.828;6.080;2023-06-04T04:53:37;21.00;57.30
24144;DHT22;12307;50.828;6.080;2023-06-04T04:56:03;21.10;57.30
24144;DHT22;12307;50.828;6.080;2023-06-04T04:58:29;21.00;57.30
24144;DHT22;12307;50.828;6.080;2023-06-04T05:00:54;21.10;57.30
24144;DHT22;12307;50.828;6.080;2023-06-04T05:03:20;21.10;57.30
24144;DHT22;12307;50.828;6.080;2023-06-04T05:05:47;21.00;57.30
24144;DHT22;12307;50.828;6.080;2023-06-04T05:08:13;21.00;57.30
24144;DHT22;12307;50.828;6.080;2023-06-04T05:10:38;21.00;57.20
24144;DHT22;12307;50.828;6.080;2023-06-04T05:13:04;21.00;57.20
24144;DHT22;12307;50.828;6.080;2023-06-04T05:15:33;21.00;57.20
24144;DHT22;12307;50.828;6.080;2023-06-04T05:17:58;21.10;57.30
24144;DHT22;12307;50.828;6.080;2023-06-04T05:20:27;21.00;57.30
24144;DHT22;12307;50.828;6.080;2023-06-04T05:22:54;21.00;57.30
24144;DHT22;12307;50.828;6.080;2023-06-04T05:25:20;21.10;57.30
24144;DHT22;12307;50.828;6.080;2023-06-04T05:27:47;21.10;57.30
24144;DHT22;12307;50.828;6.080;2023-06-04T05:30:14;21.00;57.30
24144;DHT22;12307;50.828;6.080;2023-06-04T05:32:40;21.10;57.30
24144;DHT22;12307;50.828;6.080;2023-06-04T05:35:07;21.10;57.30
24144;DHT22;12307;50.828;6.080;2023-06-04T05:37:33;21.10;57.30
24144;DHT22;12307;50.828;6.080;2023-06-04T05:40:01;21.10;57.20
24144;DHT22;12307;50.828;6.080;2023-06-04T05:42:31;21.10;57.20
24144;DHT22;12307;50.828;6.080;2023-06-04T05:44:56;21.10;57.20
24144;DHT22;12307;50.828;6.080;2023-06-04T05:47:22;21.10;57.20
24144;DHT22;12307;50.828;6.080;2023-06-04T05:49:48;21.10;57.20
24144;DHT22;12307;50.828;6.080;2023-06-04T05:52:13;21.10;57.20
24144;DHT22;12307;50.828;6.080;2023-06-04T05:54:39;21.10;57.20
24144;DHT22;12307;50.828;6.080;2023-06-04T05:57:06;21.10;57.20
24144;DHT22;12307;50.828;6.080;2023-06-04T05:59:32;21.10;57.20
24144;DHT22;12307;50.828;6.080;2023-06-04T06:01:57;21.10;57.20
24144;DHT22;12307;50.828;6.080;2023-06-04T06:04:23;21.10;57.10
24144;DHT22;12307;50.828;6.080;2023-06-04T06:06:49;21.10;57.10
24144;DHT22;12307;50.828;6.080;2023-06-04T06:09:15;21.10;57.10
24144;DHT22;12307;50.828;6.080;2023-06-04T06:11:41;21.20;57.20
24144;DHT22;12307;50.828;6.080;2023-06-04T06:14:08;21.20;57.20
24144;DHT22;12307;50.828;6.080;2023-06-04T06:16:34;21.20;57.10
24144;DHT22;12307;50.828;6.080;2023-06-04T06:19:00;21.20;57.10
24144;DHT22;12307;50.828;6.080;2023-06-04T06:21:26;21.20;57.10
24144;DHT22;12307;50.828;6.080;2023-06-04T06:23:53;21.20;57.10
24144;DHT22;12307;50.828;6.080;2023-06-04T06:26:19;21.20;57.10
24144;DHT22;12307;50.828;6.080;2023-06-04T06:28:45;21.20;57.10
24144;DHT22;12307;50.828;6.080;2023-06-04T06:31:12;21.20;57.10
24144;DHT22;12307;50.828;6.080;2023-06-04T06:33:37;21.30;57.10
24144;DHT22;12307;50.828;6.080;2023-06-04T06:36:06;21.30;57.10
24144;DHT22;12307;50.828;6.080;2023-06-04T06:38:32;21.30;57.10
24144;DHT22;12307;50.828;6.080;2023-06-04T06:40:57;21.30;57.10
24144;DHT22;12307;50.828;6.080;2023-06-04T06:43:23;21.30;57.00
24144;DHT22;12307;50.828;6.080;2023-06-04T06:45:49;21.30;57.00
24144;DHT22;12307;50.828;6.080;2023-06-04T06:48:16;21.30;57.00
24144;DHT22;12307;50.828;6.080;2023-06-04T06:50:42;21.30;56.90
24144;DHT22;12307;50.828;6.080;2023-06-04T06:53:08;21.30;56.90
24144;DHT22;12307;50.828;6.080;2023-06-04T06:55:33;21.40;56.90
24144;DHT22;12307;50.828;6.080;2023-06-04T06:57:59;21.40;56.90
24144;DHT22;12307;50.828;6.080;2023-06-04T07:00:26;21.30;56.80
24144;DHT22;12307;50.828;6.080;2023-06-04T07:02:52;21.40;56.80
24144;DHT22;12307;50.828;6.080;2023-06-04T07:05:20;21.40;56.80
24144;DHT22;12307;50.828;6.080;2023-06-04T07:07:46;21.40;56.70
24144;DHT22;12307;50.828;6.080;2023-06-04T07:10:11;21.40;56.70
24144;DHT22;12307;50.828;6.080;2023-06-04T07:12:39;21.40;56.70
24144;DHT22;12307;50.828;6.080;2023-06-04T07:15:06;21.40;56.70
24144;DHT22;12307;50.828;6.080;2023-06-04T07:17:32;21.50;56.70
24144;DHT22;12307;50.828;6.080;2023-06-04T07:19:58;21.50;56.60
24144;DHT22;12307;50.828;6.080;2023-06-04T07:22:25;21.50;56.60
24144;DHT22;12307;50.828;6.080;2023-06-04T07:24:50;21.50;56.60
24144;DHT22;12307;50.828;6.080;2023-06-04T07:27:16;21.50;56.60
24144;DHT22;12307;50.828;6.080;2023-06-04T07:29:43;21.60;56.60
24144;DHT22;12307;50.828;6.080;2023-06-04T07:32:10;21.60;56.50
24144;DHT22;12307;50.828;6.080;2023-06-04T07:34:36;21.60;56.50
24144;DHT22;12307;50.828;6.080;2023-06-04T07:37:03;21.60;56.50
24144;DHT22;12307;50.828;6.080;2023-06-04T07:39:30;21.60;56.50
24144;DHT22;12307;50.828;6.080;2023-06-04T07:41:56;21.70;56.50
24144;DHT22;12307;50.828;6.080;2023-06-04T07:44:21;21.70;56.40
24144;DHT22;12307;50.828;6.080;2023-06-04T07:46:47;21.70;56.40
24144;DHT22;12307;50.828;6.080;2023-06-04T07:49:13;21.70;56.30
24144;DHT22;12307;50.828;6.080;2023-06-04T07:51:39;21.70;56.20
24144;DHT22;12307;50.828;6.080;2023-06-04T07:54:05;21.70;56.10
24144;DHT22;12307;50.828;6.080;2023-06-04T07:56:32;21.80;56.70
24144;DHT22;12307;50.828;6.080;2023-06-04T07:58:58;21.80;56.00
24144;DHT22;12307;50.828;6.080;2023-06-04T08:01:23;21.80;55.90
24144;DHT22;12307;50.828;6.080;2023-06-04T08:03:49;21.90;55.90
24144;DHT22;12307;50.828;6.080;2023-06-04T08:06:15;21.90;55.70
24144;DHT22;12307;50.828;6.080;2023-06-04T08:08:42;21.90;55.70
24144;DHT22;12307;50.828;6.080;2023-06-04T08:11:08;22.00;55.60
24144;DHT22;12307;50.828;6.080;2023-06-04T08:13:35;22.00;55.50
24144;DHT22;12307;50.828;6.080;2023-06-04T08:16:00;22.00;55.50
24144;DHT22;12307;50.828;6.080;2023-06-04T08:18:26;22.10;55.50
24144;DHT22;12307;50.828;6.080;2023-06-04T08:20:52;22.30;55.50
24144;DHT22;12307;50.828;6.080;2023-06-04T08:23:17;22.40;55.40
24144;DHT22;12307;50.828;6.080;2023-06-04T08:25:43;22.50;55.40
24144;DHT22;12307;50.828;6.080;2023-06-04T08:28:09;22.60;55.30
24144;DHT22;12307;50.828;6.080;2023-06-04T08:30:36;22.70;55.10
24144;DHT22;12307;50.828;6.080;2023-06-04T08:33:02;22.90;55.10
24144;DHT22;12307;50.828;6.080;2023-06-04T08:35:28;23.00;54.90
24144;DHT22;12307;50.828;6.080;2023-06-04T08:37:53;23.10;54.80
24144;DHT22;12307;50.828;6.080;2023-06-04T08:40:19;23.30;54.70
24144;DHT22;12307;50.828;6.080;2023-06-04T08:42:46;23.40;54.60
24144;DHT22;12307;50.828;6.080;2023-06-04T08:45:13;23.50;54.50
24144;DHT22;12307;50.828;6.080;2023-06-04T08:47:44;23.60;54.30
24144;DHT22;12307;50.828;6.080;2023-06-04T08:50:12;23.60;54.20
24144;DHT22;12307;50.828;6.080;2023-06-04T08:52:38;23.80;54.10
24144;DHT22;12307;50.828;6.080;2023-06-04T08:55:05;23.80;54.00
24144;DHT22;12307;50.828;6.080;2023-06-04T08:57:31;23.90;53.90
24144;DHT22;12307;50.828;6.080;2023-06-04T08:59:57;24.00;53.70
24144;DHT22;12307;50.828;6.080;2023-06-04T09:02:23;24.10;53.60
24144;DHT22;12307;50.828;6.080;2023-06-04T09:04:53;24.20;53.60
24144;DHT22;12307;50.828;6.080;2023-06-04T09:07:19;24.20;53.40
24144;DHT22;12307;50.828;6.080;2023-06-04T09:09:46;24.30;53.30
24144;DHT22;12307;50.828;6.080;2023-06-04T09:12:20;24.40;53.20
24144;DHT22;12307;50.828;6.080;2023-06-04T09:14:47;24.50;53.10
24144;DHT22;12307;50.828;6.080;2023-06-04T09:17:13;24.50;52.90
24144;DHT22;12307;50.828;6.080;2023-06-04T09:19:40;24.60;52.80
24144;DHT22;12307;50.828;6.080;2023-06-04T09:22:07;24.70;52.60
24144;DHT22;12307;50.828;6.080;2023-06-04T09:24:40;24.80;52.50
24144;DHT22;12307;50.828;6.080;2023-06-04T09:27:09;24.90;52.40
24144;DHT22;12307;50.828;6.080;2023-06-04T09:29:36;24.90;52.30
24144;DHT22;12307;50.828;6.080;2023-06-04T09:32:05;25.00;52.10
24144;DHT22;12307;50.828;6.080;2023-06-04T09:34:31;25.10;52.00
24144;DHT22;12307;50.828;6.080;2023-06-04T09:36:57;25.20;51.80
24144;DHT22;12307;50.828;6.080;2023-06-04T09:39:24;25.20;51.70
24144;DHT22;12307;50.828;6.080;2023-06-04T09:41:57;25.30;51.60
24144;DHT22;12307;50.828;6.080;2023-06-04T09:44:24;25.40;51.50
24144;DHT22;12307;50.828;6.080;2023-06-04T09:46:54;25.40;51.30
24144;DHT22;12307;50.828;6.080;2023-06-04T09:49:19;25.50;51.20
24144;DHT22;12307;50.828;6.080;2023-06-04T09:51:47;25.60;51.10
24144;DHT22;12307;50.828;6.080;2023-06-04T09:54:13;25.60;51.00
24144;DHT22;12307;50.828;6.080;2023-06-04T09:56:41;25.70;50.90
24144;DHT22;12307;50.828;6.080;2023-06-04T09:59:09;25.80;50.70
24144;DHT22;12307;50.828;6.080;2023-06-04T10:01:38;25.80;50.60
24144;DHT22;12307;50.828;6.080;2023-06-04T10:04:07;25.90;50.50
24144;DHT22;12307;50.828;6.080;2023-06-04T10:06:35;25.90;50.40
24144;DHT22;12307;50.828;6.080;2023-06-04T10:09:05;26.00;50.40
24144;DHT22;12307;50.828;6.080;2023-06-04T10:11:34;26.00;50.20
24144;DHT22;12307;50.828;6.080;2023-06-04T10:14:05;26.10;50.10
24144;DHT22;12307;50.828;6.080;2023-06-04T10:16:32;26.10;50.00
24144;DHT22;12307;50.828;6.080;2023-06-04T10:18:59;26.20;49.90
24144;DHT22;12307;50.828;6.080;2023-06-04T10:21:26;26.20;49.80
24144;DHT22;12307;50.828;6.080;2023-06-04T10:23:52;26.30;49.80
24144;DHT22;12307;50.828;6.080;2023-06-04T10:26:18;26.30;49.60
24144;DHT22;12307;50.828;6.080;2023-06-04T10:28:44;26.40;49.70
24144;DHT22;12307;50.828;6.080;2023-06-04T10:31:11;26.40;49.50
24144;DHT22;12307;50.828;6.080;2023-06-04T10:33:38;26.40;49.40
24144;DHT22;12307;50.828;6.080;2023-06-04T10:36:16;26.50;49.40
24144;DHT22;12307;50.828;6.080;2023-06-04T10:38:45;26.50;49.20
24144;DHT22;12307;50.828;6.080;2023-06-04T10:41:13;26.50;49.20
24144;DHT22;12307;50.828;6.080;2023-06-04T10:43:41;26.60;49.20
24144;DHT22;12307;50.828;6.080;2023-06-04T10:46:13;26.60;49.10
24144;DHT22;12307;50.828;6.080;2023-06-04T10:48:45;26.70;49.00
24144;DHT22;12307;50.828;6.080;2023-06-04T10:51:11;26.70;49.00
24144;DHT22;12307;50.828;6.080;2023-06-04T10:53:37;26.70;48.90
24144;DHT22;12307;50.828;6.080;2023-06-04T10:56:03;26.80;48.80
24144;DHT22;12307;50.828;6.080;2023-06-04T10:58:32;26.80;48.80
24144;DHT22;12307;50.828;6.080;2023-06-04T11:00:57;26.80;48.70
24144;DHT22;12307;50.828;6.080;2023-06-04T11:03:35;26.80;48.60
24144;DHT22;12307;50.828;6.080;2023-06-04T11:06:01;26.90;48.60
24144;DHT22;12307;50.828;6.080;2023-06-04T11:08:28;26.90;48.60
24144;DHT22;12307;50.828;6.080;2023-06-04T11:10:54;26.90;48.50
24144;DHT22;12307;50.828;6.080;2023-06-04T11:13:23;26.90;48.40
24144;DHT22;12307;50.828;6.080;2023-06-04T11:15:49;26.90;48.30
24144;DHT22;12307;50.828;6.080;2023-06-04T11:18:15;27.00;48.30
24144;DHT22;12307;50.828;6.080;2023-06-04T11:20:43;27.00;48.30
24144;DHT22;12307;50.828;6.080;2023-06-04T11:23:11;27.00;48.20
24144;DHT22;12307;50.828;6.080;2023-06-04T11:25:37;27.00;48.20
24144;DHT22;12307;50.828;6.080;2023-06-04T11:28:03;27.00;48.10
24144;DHT22;12307;50.828;6.080;2023-06-04T11:30:29;27.00;48.10
24144;DHT22;12307;50.828;6.080;2023-06-04T11:33:02;27.00;48.00
24144;DHT22;12307;50.828;6.080;2023-06-04T11:35:28;27.10;48.00
24144;DHT22;12307;50.828;6.080;2023-06-04T11:37:56;27.10;48.00
24144;DHT22;12307;50.828;6.080;2023-06-04T11:40:23;27.10;48.00
24144;DHT22;12307;50.828;6.080;2023-06-04T11:42:49;27.10;48.00
24144;DHT22;12307;50.828;6.080;2023-06-04T11:45:16;27.10;47.90
24144;DHT22;12307;50.828;6.080;2023-06-04T11:47:44;27.10;47.80
24144;DHT22;12307;50.828;6.080;2023-06-04T11:50:11;27.10;47.80
24144;DHT22;12307;50.828;6.080;2023-06-04T11:52:37;27.10;47.80
24144;DHT22;12307;50.828;6.080;2023-06-04T11:55:07;27.10;47.70
24144;DHT22;12307;50.828;6.080;2023-06-04T11:57:34;27.10;47.70
24144;DHT22;12307;50.828;6.080;2023-06-04T12:00:00;27.10;47.60
24144;DHT22;12307;50.828;6.080;2023-06-04T12:02:26;27.10;47.60
24144;DHT22;12307;50.828;6.080;2023-06-04T12:04:52;27.10;47.60
24144;DHT22;12307;50.828;6.080;2023-06-04T12:07:20;27.10;47.60
24144;DHT22;12307;50.828;6.080;2023-06-04T12:09:49;27.10;47.60
24144;DHT22;12307;50.828;6.080;2023-06-04T12:12:21;27.10;47.60
24144;DHT22;12307;50.828;6.080;2023-06-04T12:14:56;27.10;47.60
24144;DHT22;12307;50.828;6.080;2023-06-04T12:17:22;27.10;47.50
24144;DHT22;12307;50.828;6.080;2023-06-04T12:19:49;27.10;47.60
24144;DHT22;12307;50.828;6.080;2023-06-04T12:22:15;27.10;47.50
24144;DHT22;12307;50.828;6.080;2023-06-04T12:24:47;27.10;47.50
24144;DHT22;12307;50.828;6.080;2023-06-04T12:27:13;27.10;47.50
24144;DHT22;12307;50.828;6.080;2023-06-04T12:29:40;27.10;47.50
24144;DHT22;12307;50.828;6.080;2023-06-04T12:32:07;27.10;47.50
24144;DHT22;12307;50.828;6.080;2023-06-04T12:34:33;27.00;47.50
24144;DHT22;12307;50.828;6.080;2023-06-04T12:36:59;27.10;47.60
24144;DHT22;12307;50.828;6.080;2023-06-04T12:39:25;27.10;47.50
24144;DHT22;12307;50.828;6.080;2023-06-04T12:41:51;27.00;47.50
24144;DHT22;12307;50.828;6.080;2023-06-04T12:44:16;27.00;47.50
24144;DHT22;12307;50.828;6.080;2023-06-04T12:46:44;27.00;47.50
24144;DHT22;12307;50.828;6.080;2023-06-04T12:49:10;26.90;47.50
24144;DHT22;12307;50.828;6.080;2023-06-04T12:51:35;27.00;47.50
24144;DHT22;12307;50.828;6.080;2023-06-04T12:54:03;26.90;47.50
24144;DHT22;12307;50.828;6.080;2023-06-04T12:56:29;26.90;47.50
24144;DHT22;12307;50.828;6.080;2023-06-04T12:58:55;26.90;47.50
24144;DHT22;12307;50.828;6.080;2023-06-04T13:01:21;26.90;47.50
24144;DHT22;12307;50.828;6.080;2023-06-04T13:03:48;26.90;47.50
24144;DHT22;12307;50.828;6.080;2023-06-04T13:06:14;26.90;47.50
24144;DHT22;12307;50.828;6.080;2023-06-04T13:08:40;26.90;47.60
24144;DHT22;12307;50.828;6.080;2023-06-04T13:11:06;26.80;47.60
24144;DHT22;12307;50.828;6.080;2023-06-04T13:13:32;26.80;47.60
24144;DHT22;12307;50.828;6.080;2023-06-04T13:15:57;26.80;47.60
24144;DHT22;12307;50.828;6.080;2023-06-04T13:18:23;26.80;47.60
24144;DHT22;12307;50.828;6.080;2023-06-04T13:20:50;26.80;47.60
24144;DHT22;12307;50.828;6.080;2023-06-04T13:23:16;26.80;47.60
24144;DHT22;12307;50.828;6.080;2023-06-04T13:25:42;26.80;47.70
24144;DHT22;12307;50.828;6.080;2023-06-04T13:28:08;26.70;47.60
24144;DHT22;12307;50.828;6.080;2023-06-04T13:30:35;26.70;47.60
24144;DHT22;12307;50.828;6.080;2023-06-04T13:33:01;26.70;47.70
24144;DHT22;12307;50.828;6.080;2023-06-04T13:35:27;26.70;47.70
24144;DHT22;12307;50.828;6.080;2023-06-04T13:37:54;26.70;47.70
24144;DHT22;12307;50.828;6.080;2023-06-04T13:40:19;26.60;47.60
24144;DHT22;12307;50.828;6.080;2023-06-04T13:42:45;26.60;47.70
24144;DHT22;12307;50.828;6.080;2023-06-04T13:45:11;26.60;47.70
24144;DHT22;12307;50.828;6.080;2023-06-04T13:47:37;26.60;47.80
24144;DHT22;12307;50.828;6.080;2023-06-04T13:50:03;26.60;47.80
24144;DHT22;12307;50.828;6.080;2023-06-04T13:52:29;26.50;47.80
24144;DHT22;12307;50.828;6.080;2023-06-04T13:54:56;26.50;47.80
24144;DHT22;12307;50.828;6.080;2023-06-04T13:57:24;26.50;47.80
24144;DHT22;12307;50.828;6.080;2023-06-04T13:59:50;26.50;47.80
24144;DHT22;12307;50.828;6.080;2023-06-04T14:02:16;26.50;47.90
24144;DHT22;12307;50.828;6.080;2023-06-04T14:04:42;26.50;47.90
24144;DHT22;12307;50.828;6.080;2023-06-04T14:07:08;26.50;48.60
24144;DHT22;12307;50.828;6.080;2023-06-04T14:09:34;26.40;47.90
24144;DHT22;12307;50.828;6.080;2023-06-04T14:12:02;26.40;47.90
24144;DHT22;12307;50.828;6.080;2023-06-04T14:14:28;26.40;48.00
24144;DHT22;12307;50.828;6.080;2023-06-04T14:17:05;26.40;48.00
24144;DHT22;12307;50.828;6.080;2023-06-04T14:19:32;26.40;48.00
24144;DHT22;12307;50.828;6.080;2023-06-04T14:21:58;26.30;48.00
24144;DHT22;12307;50.828;6.080;2023-06-04T14:24:23;26.30;48.00
24144;DHT22;12307;50.828;6.080;2023-06-04T14:26:49;26.30;48.10
24144;DHT22;12307;50.828;6.080;2023-06-04T14:29:16;26.30;48.80
24144;DHT22;12307;50.828;6.080;2023-06-04T14:31:42;26.30;48.10
24144;DHT22;12307;50.828;6.080;2023-06-04T14:34:09;26.30;48.20
24144;DHT22;12307;50.828;6.080;2023-06-04T14:36:35;26.30;48.20
24144;DHT22;12307;50.828;6.080;2023-06-04T14:39:01;26.30;48.20
24144;DHT22;12307;50.828;6.080;2023-06-04T14:41:27;26.30;48.30
24144;DHT22;12307;50.828;6.080;2023-06-04T14:43:52;26.20;48.20
24144;DHT22;12307;50.828;6.080;2023-06-04T14:46:19;26.20;48.20
24144;DHT22;12307;50.828;6.080;2023-06-04T14:48:45;26.30;48.40
24144;DHT22;12307;50.828;6.080;2023-06-04T14:51:11;26.20;48.30
24144;DHT22;12307;50.828;6.080;2023-06-04T14:53:37;26.20;48.30
24144;DHT22;12307;50.828;6.080;2023-06-04T14:56:06;26.20;48.40
24144;DHT22;12307;50.828;6.080;2023-06-04T14:58:31;26.20;48.40
24144;DHT22;12307;50.828;6.080;2023-06-04T15:00:58;26.20;48.40
24144;DHT22;12307;50.828;6.080;2023-06-04T15:03:25;26.10;48.40
24144;DHT22;12307;50.828;6.080;2023-06-04T15:05:51;26.10;48.40
24144;DHT22;12307;50.828;6.080;2023-06-04T15:08:17;26.10;48.40
24144;DHT22;12307;50.828;6.080;2023-06-04T15:10:43;26.10;48.40
24144;DHT22;12307;50.828;6.080;2023-06-04T15:13:09;26.10;48.40
24144;DHT22;12307;50.828;6.080;2023-06-04T15:15:34;26.10;48.50
24144;DHT22;12307;50.828;6.080;2023-06-04T15:18:00;26.00;48.50
24144;DHT22;12307;50.828;6.080;2023-06-04T15:20:27;26.10;48.60
24144;DHT22;12307;50.828;6.080;2023-06-04T15:22:53;26.00;48.50
24144;DHT22;12307;50.828;6.080;2023-06-04T15:25:19;26.00;48.60
24144;DHT22;12307;50.828;6.080;2023-06-04T15:27:45;26.00;48.60